sensor_id;sensor_type;location;lat;lon;timestamp;P1;durP1;ratioP1;P2;durP2;ratioP2
8556;SDS011;4316;53.840;10.762;2023-05-09T00:00:28;4.77;;;2.47;;
8556;SDS011;4316;53.840;10.762;2023-05-09T00:02:53;4.57;;;2.70;;
8556;SDS011;4316;53.840;10.762;2023-05-09T00:05:20;6.93;;;2.47;;
8556;SDS011;4316;53.840;10.762;2023-05-09T00:07:46;6.83;;;2.63;;
8556;SDS011;4316;53.840;10.762;2023-05-09T00:10:12;7.93;;;2.33;;
8556;SDS011;4316;53.840;10.762;2023-05-09T00:12:38;2.77;;;2.30;;
8556;SDS011;4316;53.840;10.762;2023-05-09T00:15:04;3.77;;;2.60;;
8556;SDS011;4316;53.840;10.762;2023-05-09T00:17:32;2.43;;;2.23;;
8556;SDS011;4316;53.840;10.762;2023-05-09T00:19:58;5.43;;;2.40;;
8556;SDS011;4316;53.840;10.762;2023-05-09T00:22:25;5.00;;;2.53;;
8556;SDS011;4316;53.840;10.762;2023-05-09T00:24:51;2.70;;;2.30;;
8556;SDS011;4316;53.840;10.762;2023-05-09T00:27:17;3.27;;;2.73;;
8556;SDS011;4316;53.840;10.762;2023-05-09T00:29:43;7.47;;;2.00;;
8556;SDS011;4316;53.840;10.762;2023-05-09T00:32:09;4.90;;;2.30;;
8556;SDS011;4316;53.840;10.762;2023-05-09T00:34:35;3.27;;;2.80;;
8556;SDS011;4316;53.840;10.762;2023-05-09T00:37:01;2.73;;;2.30;;
8556;SDS011;4316;53.840;10.762;2023-05-09T00:39:27;3.83;;;2.53;;
8556;SDS011;4316;53.840;10.762;2023-05-09T00:41:54;3.03;;;2.83;;
8556;SDS011;4316;53.840;10.762;2023-05-09T00:44:20;3.80;;;2.70;;
8556;SDS011;4316;53.840;10.762;2023-05-09T00:46:46;3.57;;;2.50;;
8556;SDS011;4316;53.840;10.762;2023-05-09T00:49:11;5.23;;;2.90;;
8556;SDS011;4316;53.840;10.762;2023-05-09T00:51:38;5.53;;;2.80;;
8556;SDS011;4316;53.840;10.762;2023-05-09T00:54:04;7.50;;;3.00;;
8556;SDS011;4316;53.840;10.762;2023-05-09T00:56:30;2.90;;;2.70;;
8556;SDS011;4316;53.840;10.762;2023-05-09T00:58:56;6.23;;;2.80;;
8556;SDS011;4316;53.840;10.762;2023-05-09T01:01:21;3.47;;;2.93;;
8556;SDS011;4316;53.840;10.762;2023-05-09T01:03:48;3.23;;;2.90;;
8556;SDS011;4316;53.840;10.762;2023-05-09T01:12:10;6.13;;;2.60;;
8556;SDS011;4316;53.840;10.762;2023-05-09T01:14:45;4.37;;;2.67;;
8556;SDS011;4316;53.840;10.762;2023-05-09T01:23:03;3.43;;;2.87;;
8556;SDS011;4316;53.840;10.762;2023-05-09T01:25:48;3.80;;;2.57;;
8556;SDS011;4316;53.840;10.762;2023-05-09T01:31:08;11.30;;;2.90;;
8556;SDS011;4316;53.840;10.762;2023-05-09T01:33:35;9.47;;;3.37;;
8556;SDS011;4316;53.840;10.762;2023-05-09T01:36:06;3.43;;;3.13;;
8556;SDS011;4316;53.840;10.762;2023-05-09T01:38:36;3.20;;;2.83;;
8556;SDS011;4316;53.840;10.762;2023-05-09T01:41:03;4.60;;;3.03;;
8556;SDS011;4316;53.840;10.762;2023-05-09T01:43:30;4.17;;;3.17;;
8556;SDS011;4316;53.840;10.762;2023-05-09T01:45:58;5.50;;;2.93;;
8556;SDS011;4316;53.840;10.762;2023-05-09T01:48:24;8.03;;;3.20;;
8556;SDS011;4316;53.840;10.762;2023-05-09T01:50:52;10.57;;;3.07;;
8556;SDS011;4316;53.840;10.762;2023-05-09T01:53:21;4.07;;;3.20;;
8556;SDS011;4316;53.840;10.762;2023-05-09T01:55:48;3.90;;;2.70;;
8556;SDS011;4316;53.840;10.762;2023-05-09T01:58:15;4.10;;;2.90;;
8556;SDS011;4316;53.840;10.762;2023-05-09T02:00:43;4.40;;;3.63;;
8556;SDS011;4316;53.840;10.762;2023-05-09T02:03:11;3.80;;;3.50;;
8556;SDS011;4316;53.840;10.762;2023-05-09T02:05:37;11.87;;;3.17;;
8556;SDS011;4316;53.840;10.762;2023-05-09T02:08:03;3.00;;;2.80;;
8556;SDS011;4316;53.840;10.762;2023-05-09T02:10:31;3.13;;;2.90;;
8556;SDS011;4316;53.840;10.762;2023-05-09T02:12:57;3.80;;;3.40;;
8556;SDS011;4316;53.840;10.762;2023-05-09T02:15:23;5.23;;;3.03;;
8556;SDS011;4316;53.840;10.762;2023-05-09T02:17:49;6.77;;;3.40;;
8556;SDS011;4316;53.840;10.762;2023-05-09T02:20:15;7.97;;;4.23;;
8556;SDS011;4316;53.840;10.762;2023-05-09T02:22:41;6.13;;;3.17;;
8556;SDS011;4316;53.840;10.762;2023-05-09T02:25:08;4.13;;;3.07;;
8556;SDS011;4316;53.840;10.762;2023-05-09T02:27:35;4.43;;;3.87;;
8556;SDS011;4316;53.840;10.762;2023-05-09T02:30:03;9.60;;;3.13;;
8556;SDS011;4316;53.840;10.762;2023-05-09T02:32:32;3.63;;;3.13;;
8556;SDS011;4316;53.840;10.762;2023-05-09T02:35:00;8.37;;;3.33;;
8556;SDS011;4316;53.840;10.762;2023-05-09T02:37:26;4.90;;;3.60;;
8556;SDS011;4316;53.840;10.762;2023-05-09T02:39:52;6.27;;;3.17;;
8556;SDS011;4316;53.840;10.762;2023-05-09T02:42:23;4.03;;;3.40;;
8556;SDS011;4316;53.840;10.762;2023-05-09T02:44:50;3.60;;;3.30;;
8556;SDS011;4316;53.840;10.762;2023-05-09T02:47:16;6.33;;;3.63;;
8556;SDS011;4316;53.840;10.762;2023-05-09T02:49:42;12.57;;;4.33;;
8556;SDS011;4316;53.840;10.762;2023-05-09T02:52:09;5.83;;;3.57;;
8556;SDS011;4316;53.840;10.762;2023-05-09T02:54:35;4.63;;;3.77;;
8556;SDS011;4316;53.840;10.762;2023-05-09T02:57:01;4.30;;;3.27;;
8556;SDS011;4316;53.840;10.762;2023-05-09T02:59:27;5.67;;;3.33;;
8556;SDS011;4316;53.840;10.762;2023-05-09T03:01:54;8.23;;;3.83;;
8556;SDS011;4316;53.840;10.762;2023-05-09T03:04:20;4.23;;;3.60;;
8556;SDS011;4316;53.840;10.762;2023-05-09T03:06:45;7.17;;;3.90;;
8556;SDS011;4316;53.840;10.762;2023-05-09T03:09:11;5.23;;;3.83;;
8556;SDS011;4316;53.840;10.762;2023-05-09T03:11:37;3.80;;;3.50;;
8556;SDS011;4316;53.840;10.762;2023-05-09T03:14:03;10.73;;;3.50;;
8556;SDS011;4316;53.840;10.762;2023-05-09T03:16:29;6.13;;;3.60;;
8556;SDS011;4316;53.840;10.762;2023-05-09T03:18:56;3.43;;;3.17;;
8556;SDS011;4316;53.840;10.762;2023-05-09T03:21:22;3.83;;;3.43;;
8556;SDS011;4316;53.840;10.762;2023-05-09T03:23:47;3.87;;;3.50;;
8556;SDS011;4316;53.840;10.762;2023-05-09T03:26:13;8.07;;;3.93;;
8556;SDS011;4316;53.840;10.762;2023-05-09T03:28:39;8.47;;;4.00;;
8556;SDS011;4316;53.840;10.762;2023-05-09T03:31:05;10.43;;;3.67;;
8556;SDS011;4316;53.840;10.762;2023-05-09T03:33:31;6.70;;;3.67;;
8556;SDS011;4316;53.840;10.762;2023-05-09T03:35:58;6.03;;;3.30;;
8556;SDS011;4316;53.840;10.762;2023-05-09T03:38:24;5.13;;;3.70;;
8556;SDS011;4316;53.840;10.762;2023-05-09T03:40:52;9.87;;;3.70;;
8556;SDS011;4316;53.840;10.762;2023-05-09T03:43:19;4.03;;;3.43;;
8556;SDS011;4316;53.840;10.762;2023-05-09T03:45:44;18.27;;;3.97;;
8556;SDS011;4316;53.840;10.762;2023-05-09T03:48:12;4.10;;;3.77;;
8556;SDS011;4316;53.840;10.762;2023-05-09T03:50:43;6.17;;;3.60;;
8556;SDS011;4316;53.840;10.762;2023-05-09T03:53:11;5.40;;;3.90;;
8556;SDS011;4316;53.840;10.762;2023-05-09T03:55:37;5.77;;;3.57;;
8556;SDS011;4316;53.840;10.762;2023-05-09T03:58:03;6.03;;;3.67;;
8556;SDS011;4316;53.840;10.762;2023-05-09T04:00:30;4.87;;;3.63;;
8556;SDS011;4316;53.840;10.762;2023-05-09T04:03:04;3.60;;;3.30;;
8556;SDS011;4316;53.840;10.762;2023-05-09T04:05:35;8.57;;;3.97;;
8556;SDS011;4316;53.840;10.762;2023-05-09T04:08:03;4.33;;;3.93;;
8556;SDS011;4316;53.840;10.762;2023-05-09T04:10:29;4.03;;;3.67;;
8556;SDS011;4316;53.840;10.762;2023-05-09T04:12:56;4.03;;;3.50;;
8556;SDS011;4316;53.840;10.762;2023-05-09T04:15:22;4.47;;;3.70;;
8556;SDS011;4316;53.840;10.762;2023-05-09T04:17:48;3.70;;;3.40;;
8556;SDS011;4316;53.840;10.762;2023-05-09T04:20:13;13.93;;;4.10;;
8556;SDS011;4316;53.840;10.762;2023-05-09T04:22:41;9.17;;;4.00;;
8556;SDS011;4316;53.840;10.762;2023-05-09T04:25:06;5.83;;;5.23;;
8556;SDS011;4316;53.840;10.762;2023-05-09T04:27:36;9.47;;;3.90;;
8556;SDS011;4316;53.840;10.762;2023-05-09T04:30:02;5.40;;;3.67;;
8556;SDS011;4316;53.840;10.762;2023-05-09T04:32:28;5.47;;;3.80;;
8556;SDS011;4316;53.840;10.762;2023-05-09T04:34:54;3.97;;;3.57;;
8556;SDS011;4316;53.840;10.762;2023-05-09T04:37:24;4.93;;;3.90;;
8556;SDS011;4316;53.840;10.762;2023-05-09T04:39:50;12.67;;;4.33;;
8556;SDS011;4316;53.840;10.762;2023-05-09T04:42:22;5.97;;;4.33;;
8556;SDS011;4316;53.840;10.762;2023-05-09T04:44:47;6.93;;;4.30;;
8556;SDS011;4316;53.840;10.762;2023-05-09T04:47:13;4.30;;;3.83;;
8556;SDS011;4316;53.840;10.762;2023-05-09T04:49:39;5.00;;;3.90;;
8556;SDS011;4316;53.840;10.762;2023-05-09T04:52:05;4.00;;;3.43;;
8556;SDS011;4316;53.840;10.762;2023-05-09T04:54:31;11.80;;;4.33;;
8556;SDS011;4316;53.840;10.762;2023-05-09T04:56:57;7.00;;;3.93;;
8556;SDS011;4316;53.840;10.762;2023-05-09T04:59:23;5.03;;;4.03;;
8556;SDS011;4316;53.840;10.762;2023-05-09T05:01:49;4.23;;;3.83;;
8556;SDS011;4316;53.840;10.762;2023-05-09T05:04:15;7.57;;;3.60;;
8556;SDS011;4316;53.840;10.762;2023-05-09T05:06:40;6.87;;;4.17;;
8556;SDS011;4316;53.840;10.762;2023-05-09T05:09:06;6.57;;;4.30;;
8556;SDS011;4316;53.840;10.762;2023-05-09T05:11:31;7.67;;;3.67;;
8556;SDS011;4316;53.840;10.762;2023-05-09T05:13:57;4.13;;;3.57;;
8556;SDS011;4316;53.840;10.762;2023-05-09T05:16:23;14.70;;;4.03;;
8556;SDS011;4316;53.840;10.762;2023-05-09T05:18:48;6.37;;;3.60;;
8556;SDS011;4316;53.840;10.762;2023-05-09T05:21:15;6.60;;;4.07;;
8556;SDS011;4316;53.840;10.762;2023-05-09T05:23:42;4.30;;;3.87;;
8556;SDS011;4316;53.840;10.762;2023-05-09T05:26:08;7.33;;;3.90;;
8556;SDS011;4316;53.840;10.762;2023-05-09T05:28:34;5.30;;;3.83;;
8556;SDS011;4316;53.840;10.762;2023-05-09T05:31:01;6.80;;;5.10;;
8556;SDS011;4316;53.840;10.762;2023-05-09T05:33:26;5.23;;;3.57;;
8556;SDS011;4316;53.840;10.762;2023-05-09T05:35:53;4.07;;;3.73;;
8556;SDS011;4316;53.840;10.762;2023-05-09T05:38:19;4.03;;;3.40;;
8556;SDS011;4316;53.840;10.762;2023-05-09T05:40:49;4.87;;;4.10;;
8556;SDS011;4316;53.840;10.762;2023-05-09T05:43:14;8.83;;;4.03;;
8556;SDS011;4316;53.840;10.762;2023-05-09T05:45:40;5.10;;;3.50;;
8556;SDS011;4316;53.840;10.762;2023-05-09T05:48:09;6.57;;;3.97;;
8556;SDS011;4316;53.840;10.762;2023-05-09T05:50:35;5.57;;;4.13;;
8556;SDS011;4316;53.840;10.762;2023-05-09T05:53:01;9.00;;;4.10;;
8556;SDS011;4316;53.840;10.762;2023-05-09T05:55:27;6.07;;;3.60;;
8556;SDS011;4316;53.840;10.762;2023-05-09T05:57:52;6.37;;;3.53;;
8556;SDS011;4316;53.840;10.762;2023-05-09T06:00:18;6.83;;;3.60;;
8556;SDS011;4316;53.840;10.762;2023-05-09T06:02:50;5.23;;;3.93;;
8556;SDS011;4316;53.840;10.762;2023-05-09T06:05:24;5.60;;;3.70;;
8556;SDS011;4316;53.840;10.762;2023-05-09T06:07:50;6.17;;;3.70;;
8556;SDS011;4316;53.840;10.762;2023-05-09T06:10:16;5.17;;;3.87;;
8556;SDS011;4316;53.840;10.762;2023-05-09T06:12:42;17.73;;;3.93;;
8556;SDS011;4316;53.840;10.762;2023-05-09T06:15:08;8.80;;;4.37;;
8556;SDS011;4316;53.840;10.762;2023-05-09T06:17:37;6.50;;;3.90;;
8556;SDS011;4316;53.840;10.762;2023-05-09T06:20:03;8.10;;;3.80;;
8556;SDS011;4316;53.840;10.762;2023-05-09T06:22:29;7.30;;;3.97;;
8556;SDS011;4316;53.840;10.762;2023-05-09T06:24:55;5.07;;;3.90;;
8556;SDS011;4316;53.840;10.762;2023-05-09T06:27:20;11.07;;;3.93;;
8556;SDS011;4316;53.840;10.762;2023-05-09T06:29:46;5.70;;;3.67;;
8556;SDS011;4316;53.840;10.762;2023-05-09T06:32:11;6.50;;;3.57;;
8556;SDS011;4316;53.840;10.762;2023-05-09T06:34:37;5.00;;;3.43;;
8556;SDS011;4316;53.840;10.762;2023-05-09T06:37:02;7.80;;;3.47;;
8556;SDS011;4316;53.840;10.762;2023-05-09T06:39:28;5.80;;;3.70;;
8556;SDS011;4316;53.840;10.762;2023-05-09T06:41:53;3.97;;;3.20;;
8556;SDS011;4316;53.840;10.762;2023-05-09T06:44:28;4.70;;;3.50;;
8556;SDS011;4316;53.840;10.762;2023-05-09T06:46:54;4.27;;;3.87;;
8556;SDS011;4316;53.840;10.762;2023-05-09T06:49:19;5.53;;;3.37;;
8556;SDS011;4316;53.840;10.762;2023-05-09T06:51:45;5.43;;;3.67;;
8556;SDS011;4316;53.840;10.762;2023-05-09T06:54:11;4.83;;;3.47;;
8556;SDS011;4316;53.840;10.762;2023-05-09T06:56:36;4.87;;;3.57;;
8556;SDS011;4316;53.840;10.762;2023-05-09T06:59:02;7.43;;;3.43;;
8556;SDS011;4316;53.840;10.762;2023-05-09T07:01:27;10.53;;;3.60;;
8556;SDS011;4316;53.840;10.762;2023-05-09T07:03:53;6.83;;;3.30;;
8556;SDS011;4316;53.840;10.762;2023-05-09T07:06:18;6.27;;;3.53;;
8556;SDS011;4316;53.840;10.762;2023-05-09T07:08:44;9.87;;;4.00;;
8556;SDS011;4316;53.840;10.762;2023-05-09T07:11:10;5.33;;;3.10;;
8556;SDS011;4316;53.840;10.762;2023-05-09T07:13:36;3.50;;;3.20;;
8556;SDS011;4316;53.840;10.762;2023-05-09T07:16:01;6.07;;;3.30;;
8556;SDS011;4316;53.840;10.762;2023-05-09T07:18:27;4.00;;;3.60;;
8556;SDS011;4316;53.840;10.762;2023-05-09T07:20:52;4.60;;;3.03;;
8556;SDS011;4316;53.840;10.762;2023-05-09T07:23:18;6.37;;;3.37;;
8556;SDS011;4316;53.840;10.762;2023-05-09T07:25:43;3.63;;;3.33;;
8556;SDS011;4316;53.840;10.762;2023-05-09T07:28:09;8.50;;;3.23;;
8556;SDS011;4316;53.840;10.762;2023-05-09T07:30:36;6.20;;;3.60;;
8556;SDS011;4316;53.840;10.762;2023-05-09T07:33:02;3.43;;;3.10;;
8556;SDS011;4316;53.840;10.762;2023-05-09T07:35:27;7.97;;;3.20;;
8556;SDS011;4316;53.840;10.762;2023-05-09T07:37:53;8.53;;;3.63;;
8556;SDS011;4316;53.840;10.762;2023-05-09T07:40:19;6.07;;;3.27;;
8556;SDS011;4316;53.840;10.762;2023-05-09T07:42:44;4.20;;;3.40;;
8556;SDS011;4316;53.840;10.762;2023-05-09T07:45:13;18.47;;;3.97;;
8556;SDS011;4316;53.840;10.762;2023-05-09T07:47:39;6.07;;;3.30;;
8556;SDS011;4316;53.840;10.762;2023-05-09T07:50:05;7.20;;;3.50;;
8556;SDS011;4316;53.840;10.762;2023-05-09T07:52:31;4.27;;;3.33;;
8556;SDS011;4316;53.840;10.762;2023-05-09T07:54:57;8.80;;;3.43;;
8556;SDS011;4316;53.840;10.762;2023-05-09T07:57:22;5.40;;;3.30;;
8556;SDS011;4316;53.840;10.762;2023-05-09T07:59:48;4.50;;;3.13;;
8556;SDS011;4316;53.840;10.762;2023-05-09T08:02:13;9.33;;;3.40;;
8556;SDS011;4316;53.840;10.762;2023-05-09T08:04:39;18.27;;;3.10;;
8556;SDS011;4316;53.840;10.762;2023-05-09T08:07:05;7.80;;;3.37;;
8556;SDS011;4316;53.840;10.762;2023-05-09T08:09:31;12.20;;;3.73;;
8556;SDS011;4316;53.840;10.762;2023-05-09T08:11:57;9.13;;;3.30;;
8556;SDS011;4316;53.840;10.762;2023-05-09T08:14:22;3.10;;;2.77;;
8556;SDS011;4316;53.840;10.762;2023-05-09T08:16:48;14.67;;;5.00;;
8556;SDS011;4316;53.840;10.762;2023-05-09T08:19:13;3.27;;;2.83;;
8556;SDS011;4316;53.840;10.762;2023-05-09T08:21:39;17.27;;;3.40;;
8556;SDS011;4316;53.840;10.762;2023-05-09T08:24:05;3.87;;;3.13;;
8556;SDS011;4316;53.840;10.762;2023-05-09T08:26:32;6.87;;;2.70;;
8556;SDS011;4316;53.840;10.762;2023-05-09T08:28:58;9.73;;;3.10;;
8556;SDS011;4316;53.840;10.762;2023-05-09T08:31:25;8.80;;;2.70;;
8556;SDS011;4316;53.840;10.762;2023-05-09T08:33:51;8.07;;;3.03;;
8556;SDS011;4316;53.840;10.762;2023-05-09T08:36:16;3.00;;;2.73;;
8556;SDS011;4316;53.840;10.762;2023-05-09T08:38:42;4.67;;;3.00;;
8556;SDS011;4316;53.840;10.762;2023-05-09T08:41:08;4.70;;;2.40;;
8556;SDS011;4316;53.840;10.762;2023-05-09T08:43:33;4.30;;;2.67;;
8556;SDS011;4316;53.840;10.762;2023-05-09T08:46:02;7.50;;;3.00;;
8556;SDS011;4316;53.840;10.762;2023-05-09T08:48:34;3.43;;;2.50;;
8556;SDS011;4316;53.840;10.762;2023-05-09T08:51:03;5.63;;;2.75;;
8556;SDS011;4316;53.840;10.762;2023-05-09T08:53:30;4.63;;;2.70;;
8556;SDS011;4316;53.840;10.762;2023-05-09T08:55:57;3.87;;;2.47;;
8556;SDS011;4316;53.840;10.762;2023-05-09T08:58:24;2.87;;;2.50;;
8556;SDS011;4316;53.840;10.762;2023-05-09T09:00:49;5.90;;;2.73;;
8556;SDS011;4316;53.840;10.762;2023-05-09T09:03:15;4.17;;;3.10;;
8556;SDS011;4316;53.840;10.762;2023-05-09T09:05:42;2.97;;;2.63;;
8556;SDS011;4316;53.840;10.762;2023-05-09T09:08:10;3.53;;;2.60;;
8556;SDS011;4316;53.840;10.762;2023-05-09T09:10:38;8.33;;;3.20;;
8556;SDS011;4316;53.840;10.762;2023-05-09T09:13:11;4.27;;;2.93;;
8556;SDS011;4316;53.840;10.762;2023-05-09T09:15:37;3.00;;;2.70;;
8556;SDS011;4316;53.840;10.762;2023-05-09T09:18:09;6.10;;;2.72;;
8556;SDS011;4316;53.840;10.762;2023-05-09T09:20:39;7.75;;;2.88;;
8556;SDS011;4316;53.840;10.762;2023-05-09T09:23:08;7.53;;;2.78;;
8556;SDS011;4316;53.840;10.762;2023-05-09T09:25:35;3.07;;;2.80;;
8556;SDS011;4316;53.840;10.762;2023-05-09T09:28:01;5.23;;;2.60;;
8556;SDS011;4316;53.840;10.762;2023-05-09T09:30:28;8.38;;;2.80;;
8556;SDS011;4316;53.840;10.762;2023-05-09T09:32:53;6.45;;;3.40;;
8556;SDS011;4316;53.840;10.762;2023-05-09T09:35:19;2.75;;;2.50;;
8556;SDS011;4316;53.840;10.762;2023-05-09T09:37:45;4.93;;;3.08;;
8556;SDS011;4316;53.840;10.762;2023-05-09T09:40:11;22.38;;;3.47;;
8556;SDS011;4316;53.840;10.762;2023-05-09T09:45:16;3.25;;;2.75;;
8556;SDS011;4316;53.840;10.762;2023-05-09T09:47:44;3.05;;;2.47;;
8556;SDS011;4316;53.840;10.762;2023-05-09T09:50:14;5.97;;;2.88;;
8556;SDS011;4316;53.840;10.762;2023-05-09T09:52:51;3.72;;;2.95;;
8556;SDS011;4316;53.840;10.762;2023-05-09T09:55:19;5.05;;;2.90;;
8556;SDS011;4316;53.840;10.762;2023-05-09T09:57:46;3.42;;;2.40;;
8556;SDS011;4316;53.840;10.762;2023-05-09T10:00:16;3.33;;;2.78;;
8556;SDS011;4316;53.840;10.762;2023-05-09T10:02:50;5.63;;;3.13;;
8556;SDS011;4316;53.840;10.762;2023-05-09T10:05:21;5.07;;;2.53;;
8556;SDS011;4316;53.840;10.762;2023-05-09T10:08:01;9.15;;;3.25;;
8556;SDS011;4316;53.840;10.762;2023-05-09T10:10:29;5.10;;;2.72;;
8556;SDS011;4316;53.840;10.762;2023-05-09T10:13:08;8.60;;;2.80;;
8556;SDS011;4316;53.840;10.762;2023-05-09T10:15:36;7.93;;;3.00;;
8556;SDS011;4316;53.840;10.762;2023-05-09T10:18:02;10.88;;;3.28;;
8556;SDS011;4316;53.840;10.762;2023-05-09T10:20:32;2.95;;;2.50;;
8556;SDS011;4316;53.840;10.762;2023-05-09T10:23:00;3.53;;;2.47;;
8556;SDS011;4316;53.840;10.762;2023-05-09T10:25:46;6.25;;;2.70;;
8556;SDS011;4316;53.840;10.762;2023-05-09T10:28:17;2.90;;;2.60;;
8556;SDS011;4316;53.840;10.762;2023-05-09T10:30:55;3.83;;;2.60;;
8556;SDS011;4316;53.840;10.762;2023-05-09T10:33:29;11.52;;;3.08;;
8556;SDS011;4316;53.840;10.762;2023-05-09T10:35:58;8.73;;;2.75;;
8556;SDS011;4316;53.840;10.762;2023-05-09T10:38:26;3.30;;;3.00;;
8556;SDS011;4316;53.840;10.762;2023-05-09T10:40:52;3.42;;;2.55;;
8556;SDS011;4316;53.840;10.762;2023-05-09T10:43:19;3.85;;;2.80;;
8556;SDS011;4316;53.840;10.762;2023-05-09T10:45:47;12.93;;;2.83;;
8556;SDS011;4316;53.840;10.762;2023-05-09T10:48:14;3.97;;;2.88;;
8556;SDS011;4316;53.840;10.762;2023-05-09T10:50:40;2.97;;;2.67;;
8556;SDS011;4316;53.840;10.762;2023-05-09T10:53:07;2.88;;;2.28;;
8556;SDS011;4316;53.840;10.762;2023-05-09T10:58:20;2.67;;;2.47;;
8556;SDS011;4316;53.840;10.762;2023-05-09T11:00:57;18.63;;;3.20;;
8556;SDS011;4316;53.840;10.762;2023-05-09T11:03:27;6.80;;;2.65;;
8556;SDS011;4316;53.840;10.762;2023-05-09T11:06:28;5.90;;;2.65;;
8556;SDS011;4316;53.840;10.762;2023-05-09T11:22:13;11.55;;;2.50;;
8556;SDS011;4316;53.840;10.762;2023-05-09T11:24:47;5.03;;;2.83;;
8556;SDS011;4316;53.840;10.762;2023-05-09T11:27:24;8.48;;;2.28;;
8556;SDS011;4316;53.840;10.762;2023-05-09T11:29:57;3.40;;;2.60;;
8556;SDS011;4316;53.840;10.762;2023-05-09T11:32:29;3.08;;;2.25;;
8556;SDS011;4316;53.840;10.762;2023-05-09T11:37:38;6.20;;;2.25;;
8556;SDS011;4316;53.840;10.762;2023-05-09T11:40:24;6.03;;;2.25;;
8556;SDS011;4316;53.840;10.762;2023-05-09T11:42:51;2.67;;;2.00;;
8556;SDS011;4316;53.840;10.762;2023-05-09T11:45:18;4.03;;;2.03;;
8556;SDS011;4316;53.840;10.762;2023-05-09T11:47:45;4.53;;;2.50;;
8556;SDS011;4316;53.840;10.762;2023-05-09T11:50:12;11.23;;;2.00;;
8556;SDS011;4316;53.840;10.762;2023-05-09T11:52:38;3.28;;;1.95;;
8556;SDS011;4316;53.840;10.762;2023-05-09T11:55:06;10.43;;;2.83;;
8556;SDS011;4316;53.840;10.762;2023-05-09T11:57:32;5.90;;;1.80;;
8556;SDS011;4316;53.840;10.762;2023-05-09T11:59:59;3.08;;;2.00;;
8556;SDS011;4316;53.840;10.762;2023-05-09T12:02:25;4.32;;;1.73;;
8556;SDS011;4316;53.840;10.762;2023-05-09T12:04:51;11.40;;;2.20;;
8556;SDS011;4316;53.840;10.762;2023-05-09T12:07:18;4.65;;;1.92;;
8556;SDS011;4316;53.840;10.762;2023-05-09T12:09:44;6.10;;;2.00;;
8556;SDS011;4316;53.840;10.762;2023-05-09T12:12:12;6.13;;;2.15;;
8556;SDS011;4316;53.840;10.762;2023-05-09T12:14:38;5.30;;;2.15;;
8556;SDS011;4316;53.840;10.762;2023-05-09T12:17:05;2.17;;;1.83;;
8556;SDS011;4316;53.840;10.762;2023-05-09T12:19:32;3.10;;;1.98;;
8556;SDS011;4316;53.840;10.762;2023-05-09T12:21:58;5.55;;;2.30;;
8556;SDS011;4316;53.840;10.762;2023-05-09T12:24:26;6.28;;;2.25;;
8556;SDS011;4316;53.840;10.762;2023-05-09T12:26:52;12.98;;;2.28;;
8556;SDS011;4316;53.840;10.762;2023-05-09T12:29:22;8.02;;;2.05;;
8556;SDS011;4316;53.840;10.762;2023-05-09T12:31:49;4.57;;;2.30;;
8556;SDS011;4316;53.840;10.762;2023-05-09T12:34:16;2.65;;;1.88;;
8556;SDS011;4316;53.840;10.762;2023-05-09T12:36:43;14.07;;;2.20;;
8556;SDS011;4316;53.840;10.762;2023-05-09T12:39:19;8.45;;;2.08;;
8556;SDS011;4316;53.840;10.762;2023-05-09T12:41:47;4.25;;;2.10;;
8556;SDS011;4316;53.840;10.762;2023-05-09T12:44:17;4.55;;;2.10;;
8556;SDS011;4316;53.840;10.762;2023-05-09T12:46:54;4.40;;;2.05;;
8556;SDS011;4316;53.840;10.762;2023-05-09T12:49:22;1.75;;;1.63;;
8556;SDS011;4316;53.840;10.762;2023-05-09T12:51:48;6.50;;;2.20;;
8556;SDS011;4316;53.840;10.762;2023-05-09T12:54:24;9.63;;;2.33;;
8556;SDS011;4316;53.840;10.762;2023-05-09T12:56:52;5.13;;;2.10;;
8556;SDS011;4316;53.840;10.762;2023-05-09T12:59:27;3.20;;;1.95;;
8556;SDS011;4316;53.840;10.762;2023-05-09T13:04:20;2.97;;;1.95;;
8556;SDS011;4316;53.840;10.762;2023-05-09T13:06:47;9.10;;;1.83;;
8556;SDS011;4316;53.840;10.762;2023-05-09T13:09:16;3.60;;;1.70;;
8556;SDS011;4316;53.840;10.762;2023-05-09T13:11:42;4.43;;;2.40;;
8556;SDS011;4316;53.840;10.762;2023-05-09T13:14:09;18.30;;;2.05;;
8556;SDS011;4316;53.840;10.762;2023-05-09T13:16:34;19.67;;;1.92;;
8556;SDS011;4316;53.840;10.762;2023-05-09T13:19:00;4.97;;;2.10;;
8556;SDS011;4316;53.840;10.762;2023-05-09T13:21:26;5.55;;;1.73;;
8556;SDS011;4316;53.840;10.762;2023-05-09T13:23:52;10.63;;;2.10;;
8556;SDS011;4316;53.840;10.762;2023-05-09T13:26:17;6.47;;;1.55;;
8556;SDS011;4316;53.840;10.762;2023-05-09T13:28:43;6.63;;;1.60;;
8556;SDS011;4316;53.840;10.762;2023-05-09T13:31:08;13.48;;;2.10;;
8556;SDS011;4316;53.840;10.762;2023-05-09T13:33:34;10.15;;;2.17;;
8556;SDS011;4316;53.840;10.762;2023-05-09T13:36:00;9.07;;;1.63;;
8556;SDS011;4316;53.840;10.762;2023-05-09T13:38:25;6.05;;;2.15;;
8556;SDS011;4316;53.840;10.762;2023-05-09T13:40:54;12.00;;;2.55;;
8556;SDS011;4316;53.840;10.762;2023-05-09T13:43:20;8.95;;;2.20;;
8556;SDS011;4316;53.840;10.762;2023-05-09T13:45:46;8.13;;;1.90;;
8556;SDS011;4316;53.840;10.762;2023-05-09T13:48:12;3.03;;;1.73;;
8556;SDS011;4316;53.840;10.762;2023-05-09T13:50:37;4.00;;;2.03;;
8556;SDS011;4316;53.840;10.762;2023-05-09T13:53:03;8.85;;;2.45;;
8556;SDS011;4316;53.840;10.762;2023-05-09T13:55:28;7.03;;;2.05;;
8556;SDS011;4316;53.840;10.762;2023-05-09T13:57:54;6.75;;;2.17;;
8556;SDS011;4316;53.840;10.762;2023-05-09T14:00:20;13.82;;;2.30;;
8556;SDS011;4316;53.840;10.762;2023-05-09T14:02:48;13.25;;;1.63;;
8556;SDS011;4316;53.840;10.762;2023-05-09T14:05:14;11.75;;;2.28;;
8556;SDS011;4316;53.840;10.762;2023-05-09T14:07:40;5.95;;;1.90;;
8556;SDS011;4316;53.840;10.762;2023-05-09T14:10:06;5.90;;;1.70;;
8556;SDS011;4316;53.840;10.762;2023-05-09T14:12:33;5.15;;;1.77;;
8556;SDS011;4316;53.840;10.762;2023-05-09T14:14:58;14.10;;;2.05;;
8556;SDS011;4316;53.840;10.762;2023-05-09T14:17:24;16.98;;;2.33;;
8556;SDS011;4316;53.840;10.762;2023-05-09T14:19:49;10.25;;;2.38;;
8556;SDS011;4316;53.840;10.762;2023-05-09T14:22:15;14.45;;;2.13;;
8556;SDS011;4316;53.840;10.762;2023-05-09T14:24:41;3.33;;;2.10;;
8556;SDS011;4316;53.840;10.762;2023-05-09T14:27:06;2.20;;;1.70;;
8556;SDS011;4316;53.840;10.762;2023-05-09T14:29:32;9.57;;;2.65;;
8556;SDS011;4316;53.840;10.762;2023-05-09T14:31:59;12.48;;;2.70;;
8556;SDS011;4316;53.840;10.762;2023-05-09T14:34:24;5.35;;;1.75;;
8556;SDS011;4316;53.840;10.762;2023-05-09T14:36:50;8.02;;;2.50;;
8556;SDS011;4316;53.840;10.762;2023-05-09T14:39:16;4.65;;;2.20;;
8556;SDS011;4316;53.840;10.762;2023-05-09T14:41:41;5.15;;;2.10;;
8556;SDS011;4316;53.840;10.762;2023-05-09T14:44:07;8.43;;;2.05;;
8556;SDS011;4316;53.840;10.762;2023-05-09T14:46:32;9.93;;;2.33;;
8556;SDS011;4316;53.840;10.762;2023-05-09T14:48:58;6.55;;;2.17;;
8556;SDS011;4316;53.840;10.762;2023-05-09T14:51:28;6.30;;;1.90;;
8556;SDS011;4316;53.840;10.762;2023-05-09T14:53:55;6.53;;;2.17;;
8556;SDS011;4316;53.840;10.762;2023-05-09T14:56:22;5.82;;;2.13;;
8556;SDS011;4316;53.840;10.762;2023-05-09T14:58:47;4.40;;;2.03;;
8556;SDS011;4316;53.840;10.762;2023-05-09T15:01:13;9.10;;;2.03;;
8556;SDS011;4316;53.840;10.762;2023-05-09T15:03:40;17.48;;;2.35;;
8556;SDS011;4316;53.840;10.762;2023-05-09T15:06:05;3.95;;;1.55;;
8556;SDS011;4316;53.840;10.762;2023-05-09T15:08:31;10.20;;;1.90;;
8556;SDS011;4316;53.840;10.762;2023-05-09T15:10:58;5.88;;;1.98;;
8556;SDS011;4316;53.840;10.762;2023-05-09T15:13:23;9.80;;;1.60;;
8556;SDS011;4316;53.840;10.762;2023-05-09T15:15:49;3.88;;;1.63;;
8556;SDS011;4316;53.840;10.762;2023-05-09T15:18:14;3.35;;;1.67;;
8556;SDS011;4316;53.840;10.762;2023-05-09T15:20:42;8.65;;;1.58;;
8556;SDS011;4316;53.840;10.762;2023-05-09T15:23:08;5.30;;;1.55;;
8556;SDS011;4316;53.840;10.762;2023-05-09T15:25:34;5.03;;;1.80;;
8556;SDS011;4316;53.840;10.762;2023-05-09T15:28:00;11.05;;;4.05;;
8556;SDS011;4316;53.840;10.762;2023-05-09T15:30:25;3.92;;;1.92;;
8556;SDS011;4316;53.840;10.762;2023-05-09T15:32:51;3.45;;;1.58;;
8556;SDS011;4316;53.840;10.762;2023-05-09T15:35:17;1.83;;;1.67;;
8556;SDS011;4316;53.840;10.762;2023-05-09T15:37:43;4.38;;;1.90;;